createdAt,value
2017-04-05T00:00:35.978Z,12.9
2017-04-05T00:01:38.124Z,12.9
2017-04-05T00:02:39.923Z,12.9
2017-04-05T00:03:41.718Z,12.9
2017-04-05T00:04:43.859Z,12.9
2017-04-05T00:05:45.664Z,12.9
2017-04-05T00:06:47.451Z,12.9
2017-04-05T00:07:49.254Z,12.8
2017-04-05T00:08:51.053Z,12.9
2017-04-05T00:09:52.854Z,12.8
2017-04-05T00:10:54.640Z,12.8
2017-04-05T00:11:56.445Z,12.8
2017-04-05T00:12:58.238Z,12.8
2017-04-05T00:14:00.033Z,12.7
2017-04-05T00:15:02.166Z,12.8
2017-04-05T00:16:03.957Z,12.7
2017-04-05T00:17:05.752Z,12.7
2017-04-05T00:18:07.550Z,12.7
2017-04-05T00:19:09.338Z,12.6
2017-04-05T00:20:11.131Z,12.6
2017-04-05T00:21:12.933Z,12.6
2017-04-05T00:22:14.742Z,12.6
2017-04-05T00:23:16.531Z,12.5
2017-04-05T00:24:18.326Z,12.5
2017-04-05T00:25:20.121Z,12.5
2017-04-05T00:26:22.253Z,12.5
2017-04-05T00:27:24.061Z,12.5
2017-04-05T00:28:25.861Z,12.4
2017-04-05T00:29:27.661Z,12.4
2017-04-05T00:30:29.465Z,12.4
2017-04-05T00:31:31.260Z,12.4
2017-04-05T00:32:33.058Z,12.4
2017-04-05T00:33:35.187Z,12.4
2017-04-05T00:34:36.993Z,12.4
2017-04-05T00:35:38.787Z,12.3
2017-04-05T00:36:40.587Z,12.4
2017-04-05T00:37:42.382Z,12.3
2017-04-05T00:38:44.165Z,12.3
2017-04-05T00:39:45.958Z,12.3
2017-04-05T00:40:47.761Z,12.3
2017-04-05T00:41:49.546Z,12.2
2017-04-05T00:42:51.339Z,12.2
2017-04-05T00:43:53.142Z,12.2
2017-04-05T00:44:54.942Z,12.1
2017-04-05T00:45:56.734Z,12.1
2017-04-05T00:46:58.537Z,12.1
2017-04-05T00:48:00.332Z,12
2017-04-05T00:49:02.129Z,12
2017-04-05T00:50:03.927Z,12
2017-04-05T00:51:05.749Z,12
2017-04-05T00:52:07.888Z,12
2017-04-05T00:53:09.691Z,12
2017-04-05T00:54:11.484Z,11.9
2017-04-05T00:55:13.632Z,11.9
2017-04-05T00:56:15.771Z,11.9
2017-04-05T00:57:17.561Z,11.9
2017-04-05T00:58:19.358Z,11.9
2017-04-05T00:59:21.148Z,11.8
2017-04-05T01:00:22.957Z,11.8
2017-04-05T01:01:24.745Z,11.8
2017-04-05T01:02:26.883Z,11.7
2017-04-05T01:03:28.685Z,11.7
2017-04-05T01:04:30.472Z,11.6
2017-04-05T01:05:32.264Z,11.6
2017-04-05T01:06:34.056Z,11.5
2017-04-05T01:07:35.854Z,11.5
2017-04-05T01:08:37.655Z,11.4
2017-04-05T01:09:39.453Z,11.4
2017-04-05T01:10:41.253Z,11.4
2017-04-05T01:11:43.035Z,11.4
2017-04-05T01:12:44.840Z,11.3
2017-04-05T01:13:46.637Z,11.3
2017-04-05T01:14:48.774Z,11.3
2017-04-05T01:15:50.573Z,11.2
2017-04-05T01:16:52.370Z,11.2
2017-04-05T01:17:54.164Z,11.1
2017-04-05T01:18:55.960Z,11.1
2017-04-05T01:19:57.746Z,11.1
2017-04-05T01:20:59.542Z,11.1
2017-04-05T01:22:01.335Z,11.1
2017-04-05T01:23:03.136Z,11.1
2017-04-05T01:24:04.935Z,11.1
2017-04-05T01:25:06.728Z,11
2017-04-05T01:26:08.875Z,11
2017-04-05T01:27:10.672Z,10.9
2017-04-05T01:28:12.469Z,10.9
2017-04-05T01:29:14.272Z,10.9
2017-04-05T01:30:16.398Z,10.8
2017-04-05T01:31:18.185Z,10.8
2017-04-05T01:32:19.977Z,10.8
2017-04-05T01:33:21.791Z,10.7
2017-04-05T01:34:23.579Z,10.7
2017-04-05T01:35:25.370Z,10.7
2017-04-05T01:36:27.160Z,10.7
2017-04-05T01:37:28.960Z,10.7
2017-04-05T01:38:30.751Z,10.7
2017-04-05T01:39:32.535Z,10.6
2017-04-05T01:40:34.325Z,10.6
2017-04-05T01:41:36.153Z,10.6
2017-04-05T01:42:37.934Z,10.6
2017-04-05T01:43:39.732Z,10.6
2017-04-05T01:44:41.863Z,10.5
2017-04-05T01:45:43.667Z,10.5
2017-04-05T01:46:45.461Z,10.5
2017-04-05T01:47:47.251Z,10.5
2017-04-05T01:48:49.038Z,10.4
2017-04-05T01:49:50.840Z,10.4
2017-04-05T01:50:52.643Z,10.4
2017-04-05T01:51:54.443Z,10.4
2017-04-05T01:52:56.224Z,10.4
2017-04-05T01:53:58.024Z,10.4
2017-04-05T01:54:59.816Z,10.3
2017-04-05T01:56:01.621Z,10.3
2017-04-05T01:57:03.716Z,10.3
2017-04-05T01:58:05.506Z,10.3
2017-04-05T01:59:07.298Z,10.3
2017-04-05T02:00:09.093Z,10.2
2017-04-05T02:01:10.884Z,10.2
2017-04-05T02:02:12.677Z,10.2
2017-04-05T02:03:14.467Z,10.2
2017-04-05T02:04:16.262Z,10.2
2017-04-05T02:05:18.415Z,10.2
2017-04-05T02:06:20.204Z,10.2
2017-04-05T02:07:22.013Z,10.2
2017-04-05T02:08:23.804Z,10.3
2017-04-05T02:09:25.634Z,10.3
2017-04-05T02:10:27.430Z,10.3
2017-04-05T02:11:29.224Z,10.3
2017-04-05T02:12:31.021Z,10.3
2017-04-05T02:13:32.812Z,10.3
2017-04-05T02:14:34.609Z,10.3
2017-04-05T02:15:36.405Z,10.3
2017-04-05T02:16:38.203Z,10.3
2017-04-05T02:17:39.981Z,10.3
2017-04-05T02:18:41.777Z,10.3
2017-04-05T02:19:43.573Z,10.4
2017-04-05T02:20:45.359Z,10.4
2017-04-05T02:21:47.152Z,10.4
2017-04-05T02:22:48.943Z,10.4
2017-04-05T02:23:50.737Z,10.5
2017-04-05T02:24:52.874Z,10.5
2017-04-05T02:25:54.656Z,10.5
2017-04-05T02:26:56.460Z,10.5
2017-04-05T02:27:58.256Z,10.5
2017-04-05T02:29:00.050Z,10.5
2017-04-05T02:30:01.829Z,10.5
2017-04-05T02:31:03.979Z,10.6
2017-04-05T02:32:05.779Z,10.5
2017-04-05T02:33:07.569Z,10.6
2017-04-05T02:34:09.365Z,10.6
2017-04-05T02:35:11.503Z,10.6
2017-04-05T02:36:13.302Z,10.6
2017-04-05T02:37:15.095Z,10.6
2017-04-05T02:38:16.899Z,10.6
2017-04-05T02:39:18.678Z,10.6
2017-04-05T02:40:20.480Z,10.6
2017-04-05T02:41:22.278Z,10.6
2017-04-05T02:42:24.065Z,10.6
2017-04-05T02:43:25.856Z,10.6
2017-04-05T02:44:27.647Z,10.6
2017-04-05T02:45:29.437Z,10.6
2017-04-05T02:46:31.235Z,10.5
2017-04-05T02:47:33.014Z,10.5
2017-04-05T02:48:34.819Z,10.5
2017-04-05T02:49:36.612Z,10.5
2017-04-05T02:50:38.416Z,10.5
2017-04-05T02:51:40.225Z,10.5
2017-04-05T02:52:42.218Z,10.5
2017-04-05T02:53:44.356Z,10.5
2017-04-05T02:54:46.150Z,10.5
2017-04-05T11:48:11.184Z,14.5
2017-04-05T11:49:14.278Z,14.5
2017-04-05T11:50:17.125Z,14.5
2017-04-05T11:51:34.872Z,14.5
2017-04-05T11:52:37.676Z,14.4
2017-04-05T11:53:40.103Z,14.4
2017-04-05T11:54:44.937Z,14.4
2017-04-05T11:55:50.358Z,14.3
2017-04-05T11:56:53.027Z,14.3
2017-04-05T11:57:55.689Z,14.3
2017-04-05T11:58:58.111Z,14.4
2017-04-05T12:00:00.890Z,14.4
2017-04-05T12:01:03.609Z,14.5
2017-04-05T12:02:06.844Z,14.5
2017-04-05T12:03:09.041Z,14.6
2017-04-05T12:04:11.906Z,14.6
2017-04-05T12:05:14.244Z,14.6
2017-04-05T12:06:16.540Z,14.6
2017-04-05T12:07:19.083Z,14.7
2017-04-05T12:08:21.857Z,14.7
2017-04-05T12:09:24.795Z,14.7
2017-04-05T12:10:27.592Z,14.7
2017-04-05T12:11:30.961Z,14.7
2017-04-05T12:12:34.078Z,14.7
2017-04-05T12:13:37.604Z,14.7
2017-04-05T12:14:39.945Z,14.7
2017-04-05T12:15:42.832Z,14.7
2017-04-05T12:16:45.742Z,14.7
2017-04-05T12:17:49.556Z,14.8
2017-04-05T12:18:52.756Z,14.8
2017-04-05T12:19:55.951Z,14.8
2017-04-05T12:20:59.249Z,14.8
2017-04-05T12:22:01.610Z,14.8
2017-04-05T12:23:04.354Z,14.8
2017-04-05T12:24:07.175Z,14.8
2017-04-05T12:25:09.684Z,14.8
2017-04-05T12:26:11.772Z,14.8
2017-04-05T12:27:14.408Z,14.9
2017-04-05T12:28:17.214Z,14.8
2017-04-05T12:29:20.171Z,14.8
2017-04-05T12:30:23.682Z,14.8
2017-04-05T12:31:25.664Z,14.8
2017-04-05T12:32:27.864Z,14.8
2017-04-05T12:33:30.304Z,14.8
2017-04-05T12:34:33.465Z,14.8
2017-04-05T12:35:35.720Z,14.9
2017-04-05T12:36:39.139Z,14.9
2017-04-05T12:37:42.288Z,14.9
2017-04-05T12:38:44.758Z,14.9
2017-04-05T12:39:47.837Z,14.9
2017-04-05T12:40:50.384Z,15
2017-04-05T12:41:52.642Z,15
2017-04-05T12:44:59.903Z,15.1
2017-04-05T12:46:03.034Z,15.3
2017-04-05T12:47:06.303Z,15.4
2017-04-05T12:48:08.514Z,15.6
2017-04-05T12:49:10.906Z,15.7
2017-04-05T12:50:13.952Z,15.9
2017-04-05T12:51:16.411Z,16.1
2017-04-05T12:52:18.871Z,16.3
2017-04-05T12:53:21.337Z,16.5
2017-04-05T12:54:23.548Z,16.6
2017-04-05T12:55:26.767Z,16.7
2017-04-05T12:56:30.415Z,16.7
2017-04-05T12:57:32.961Z,16.8
2017-04-05T12:58:35.625Z,16.8
2017-04-05T12:59:37.679Z,16.8
2017-04-05T13:00:41.390Z,16.8
2017-04-05T13:01:44.157Z,16.9
2017-04-05T13:02:46.387Z,17
2017-04-05T13:03:48.536Z,17
2017-04-05T13:04:51.813Z,17.1
2017-04-05T13:05:54.546Z,17.1
2017-04-05T13:06:56.968Z,17.1
2017-04-05T13:07:59.495Z,17
2017-04-05T13:09:03.556Z,17.1
2017-04-05T13:10:06.703Z,17
2017-04-05T13:11:08.911Z,17
2017-04-05T13:12:13.926Z,17
2017-04-05T13:13:17.051Z,17
2017-04-05T13:14:20.796Z,17
2017-04-05T13:15:23.862Z,17
2017-04-05T13:16:27.053Z,17
2017-04-05T13:17:30.465Z,17
2017-04-05T13:18:33.570Z,17
2017-04-05T13:19:38.298Z,17
2017-04-05T13:20:41.345Z,17
2017-04-05T13:21:43.648Z,17
2017-04-05T13:22:46.152Z,17.1
2017-04-05T13:23:48.948Z,17.1
2017-04-05T13:24:51.722Z,17.2
2017-04-05T13:25:54.378Z,17.2
2017-04-05T13:26:56.253Z,17.2
2017-04-05T13:27:59.329Z,17.1
2017-04-05T13:29:04.651Z,17.1
2017-04-05T13:30:07.667Z,17
2017-04-05T13:31:10.434Z,17
2017-04-05T13:32:13.766Z,16.9
2017-04-05T13:33:16.283Z,16.8
2017-04-05T13:34:18.513Z,16.8
2017-04-05T13:35:21.045Z,16.7
2017-04-05T13:36:23.206Z,16.7
2017-04-05T13:37:25.721Z,16.7
2017-04-05T13:38:27.548Z,16.7
2017-04-05T13:39:29.713Z,16.6
2017-04-05T13:40:32.432Z,16.6
2017-04-05T13:41:34.658Z,16.6
2017-04-05T13:42:36.684Z,16.5
2017-04-05T13:43:38.651Z,16.4
2017-04-05T13:44:40.709Z,16.3
2017-04-05T13:45:42.824Z,16.2
2017-04-05T13:46:45.191Z,16.1
2017-04-05T13:47:47.920Z,16.1
2017-04-05T13:48:49.778Z,16
2017-04-05T13:49:52.101Z,15.9
2017-04-05T13:50:54.513Z,15.9
2017-04-05T13:51:56.694Z,15.8
2017-04-05T13:52:59.375Z,15.7
2017-04-05T13:54:01.679Z,15.7
2017-04-05T13:55:03.836Z,15.6
2017-04-05T13:56:05.922Z,15.6
2017-04-05T13:57:08.783Z,15.6
2017-04-05T13:58:11.050Z,15.5
2017-04-05T13:59:13.318Z,15.4
2017-04-05T14:00:15.650Z,15.3
2017-04-05T14:01:18.185Z,15.3
2017-04-05T14:02:20.407Z,15.3
2017-04-05T14:03:23.211Z,15.2
2017-04-05T14:04:26.489Z,15.2
2017-04-05T14:05:29.525Z,15.2
2017-04-05T14:06:31.645Z,15.1
2017-04-05T14:07:34.153Z,15.1
2017-04-05T14:08:36.467Z,15.1
2017-04-05T14:09:38.794Z,15.1
2017-04-05T14:10:40.790Z,15.1
2017-04-05T14:11:43.251Z,15.2
2017-04-05T14:12:46.469Z,15.2
2017-04-05T14:13:49.554Z,15.3
2017-04-05T14:14:51.924Z,15.3
2017-04-05T14:15:53.970Z,15.4
2017-04-05T14:16:56.251Z,15.4
2017-04-05T14:17:58.375Z,15.4
2017-04-05T14:19:00.844Z,15.4
2017-04-05T14:20:03.038Z,15.4
2017-04-05T14:21:05.557Z,15.5
2017-04-05T14:22:07.859Z,15.6
2017-04-05T14:23:10.107Z,15.8
2017-04-05T14:24:12.378Z,15.9
2017-04-05T14:25:14.612Z,16
2017-04-05T14:26:16.907Z,16.1
2017-04-05T14:27:19.128Z,16.2
2017-04-05T14:28:20.973Z,16.3
2017-04-05T14:29:22.790Z,16.5
2017-04-05T14:30:24.635Z,16.6
2017-04-05T14:31:26.447Z,16.7
2017-04-05T14:32:28.293Z,16.7
2017-04-05T14:33:31.818Z,16.7
2017-04-05T14:34:34.442Z,16.7
2017-04-05T14:35:38.144Z,16.6
2017-04-05T14:36:40.753Z,16.6
2017-04-05T14:37:43.607Z,16.5
2017-04-05T14:38:46.519Z,16.5
2017-04-05T14:39:49.321Z,16.4
2017-04-05T14:40:51.872Z,16.3
2017-04-05T14:41:54.328Z,16.3
2017-04-05T14:42:57.442Z,16.3
2017-04-05T14:44:00.595Z,16.3
2017-04-05T14:45:03.200Z,16.3
2017-04-05T14:46:06.717Z,16.3
2017-04-05T14:47:10.535Z,16.3
2017-04-05T14:48:13.460Z,16.3
2017-04-05T14:49:16.445Z,16.3
2017-04-05T14:50:19.372Z,16.3
2017-04-05T14:51:22.587Z,16.2
2017-04-05T14:52:25.034Z,16.1
2017-04-05T14:53:28.059Z,16.1
2017-04-05T14:54:30.941Z,16
2017-04-05T14:55:34.687Z,16
2017-04-05T14:56:38.637Z,15.9
2017-04-05T14:57:44.112Z,15.8
2017-04-05T14:58:47.270Z,15.8
2017-04-05T14:59:50.662Z,15.8
2017-04-05T15:00:53.968Z,15.7
2017-04-05T15:01:56.067Z,15.7
2017-04-05T15:02:58.382Z,15.7
2017-04-05T15:04:01.032Z,15.6
2017-04-05T15:05:03.586Z,15.6
2017-04-05T15:06:05.690Z,15.5
2017-04-05T15:07:08.421Z,15.5
2017-04-05T15:08:14.176Z,15.5
2017-04-05T15:09:17.050Z,15.5
2017-04-05T15:10:20.196Z,15.6
2017-04-05T15:11:22.802Z,15.6
2017-04-05T15:12:25.442Z,15.6
2017-04-05T15:13:27.947Z,15.6
2017-04-05T15:14:30.551Z,15.7
2017-04-05T15:15:32.932Z,15.6
2017-04-05T15:16:34.986Z,15.6
2017-04-05T15:17:37.374Z,15.5
2017-04-05T15:18:39.252Z,15.5
2017-04-05T15:19:41.324Z,15.4
2017-04-05T15:20:43.354Z,15.4
2017-04-05T15:21:45.980Z,15.5
2017-04-05T15:22:48.558Z,15.6
2017-04-05T15:23:51.137Z,15.6
2017-04-05T15:24:53.221Z,15.7
2017-04-05T15:25:55.223Z,15.7
2017-04-05T15:26:57.081Z,15.6
2017-04-05T15:27:58.930Z,15.6
2017-04-05T15:29:01.498Z,15.6
2017-04-05T15:30:04.168Z,15.5
2017-04-05T15:31:06.032Z,15.6
2017-04-05T15:32:07.837Z,15.6
2017-04-05T15:33:09.632Z,15.8
2017-04-05T15:34:11.431Z,16
2017-04-05T15:35:13.242Z,16.2
2017-04-05T15:36:15.050Z,16.4
2017-04-05T15:37:16.857Z,16.4
2017-04-05T15:38:18.652Z,16.5
2017-04-05T15:39:20.467Z,16.6
2017-04-05T15:40:22.270Z,16.7
2017-04-05T15:41:24.090Z,16.8
2017-04-05T15:42:25.913Z,16.9
2017-04-05T15:43:27.710Z,17
2017-04-05T15:44:29.517Z,17
2017-04-05T15:45:31.326Z,17.1
2017-04-05T15:46:33.127Z,17.2
2017-04-05T15:47:35.604Z,17.4
2017-04-05T15:48:37.754Z,17.5
2017-04-05T15:49:39.893Z,17.6
2017-04-05T15:50:41.699Z,17.6
2017-04-05T15:51:43.497Z,17.6
2017-04-05T15:52:45.308Z,17.6
2017-04-05T15:53:47.446Z,17.7
2017-04-05T15:54:49.245Z,17.8
2017-04-05T15:55:51.038Z,17.9
2017-04-05T15:56:52.852Z,18
2017-04-05T15:57:54.675Z,18
2017-04-05T15:58:56.487Z,18
2017-04-05T15:59:58.307Z,18
2017-04-05T16:01:00.467Z,17.9
2017-04-05T16:02:02.609Z,17.8
2017-04-05T16:03:04.762Z,17.7
2017-04-05T16:04:06.563Z,17.6
2017-04-05T16:05:08.365Z,17.5
2017-04-05T16:06:10.171Z,17.4
2017-04-05T16:07:11.979Z,17.3
2017-04-05T16:08:13.768Z,17.1
2017-04-05T16:09:15.572Z,17
2017-04-05T16:10:17.407Z,16.8
2017-04-05T16:11:19.208Z,16.7
2017-04-05T16:12:21.029Z,16.7
2017-04-05T16:13:22.834Z,16.6
2017-04-05T16:14:24.638Z,16.5
2017-04-05T16:15:26.432Z,16.4
2017-04-05T16:16:28.245Z,16.3
2017-04-05T16:17:30.051Z,16.1
2017-04-05T16:18:31.885Z,16
2017-04-05T16:19:33.678Z,15.8
2017-04-05T16:20:35.843Z,15.8
2017-04-05T16:21:37.636Z,15.7
2017-04-05T16:22:39.785Z,15.6
2017-04-05T16:23:41.588Z,15.6
2017-04-05T16:24:43.383Z,15.5
2017-04-05T16:25:45.190Z,15.4
2017-04-05T16:26:46.992Z,15.4
2017-04-05T16:27:48.789Z,15.4
2017-04-05T16:28:50.943Z,15.4
2017-04-05T16:29:52.752Z,15.3
2017-04-05T16:30:54.556Z,15.3
2017-04-05T16:31:56.356Z,15.2
2017-04-05T16:32:58.159Z,15.2
2017-04-05T16:33:59.964Z,15.1
2017-04-05T16:35:01.764Z,15
2017-04-05T16:36:03.563Z,14.9
2017-04-05T16:37:05.370Z,14.9
2017-04-05T16:38:07.184Z,14.8
2017-04-05T16:39:08.986Z,14.8
2017-04-05T16:40:10.784Z,14.8
2017-04-05T16:41:12.919Z,14.7
2017-04-05T16:42:14.728Z,14.7
2017-04-05T16:43:16.522Z,14.6
2017-04-05T16:44:18.328Z,14.5
2017-04-05T16:45:20.462Z,14.5
2017-04-05T16:46:22.263Z,14.4
2017-04-05T16:47:24.074Z,14.3
2017-04-05T16:48:25.881Z,14.2
2017-04-05T16:49:27.666Z,14.2
2017-04-05T16:50:29.472Z,14.2
2017-04-05T16:51:31.273Z,14.2
2017-04-05T16:52:33.080Z,14.1
2017-04-05T16:53:34.877Z,14
2017-04-05T16:54:36.686Z,14
2017-04-05T16:55:38.489Z,13.9
2017-04-05T16:56:40.281Z,13.9
2017-04-05T16:57:42.433Z,13.8
2017-04-05T16:58:44.652Z,13.7
2017-04-05T16:59:46.466Z,13.7
2017-04-05T17:00:48.266Z,13.6
2017-04-05T17:01:50.081Z,13.6
2017-04-05T17:02:51.881Z,13.5
2017-04-05T17:03:53.689Z,13.5
2017-04-05T17:04:55.520Z,13.4
2017-04-05T17:05:57.309Z,13.3
2017-04-05T17:06:59.118Z,13.3
2017-04-05T17:08:01.250Z,13.2
2017-04-05T17:09:03.052Z,13.2
2017-04-05T17:10:04.848Z,13.1
2017-04-05T17:11:06.663Z,13.1
2017-04-05T17:12:08.459Z,12.9
2017-04-05T17:13:10.261Z,12.9
2017-04-05T17:14:12.053Z,12.9
2017-04-05T17:15:13.861Z,12.8
2017-04-05T17:16:15.663Z,12.8
2017-04-05T17:17:17.462Z,12.8
2017-04-05T17:18:19.266Z,12.8
2017-04-05T17:19:21.393Z,12.7
2017-04-05T17:20:23.193Z,12.8
2017-04-05T17:21:25.350Z,12.7
2017-04-05T17:22:27.147Z,12.7
2017-04-05T17:23:29.288Z,12.7
2017-04-05T17:24:31.099Z,12.6
2017-04-05T17:25:32.912Z,12.6
2017-04-05T17:26:34.705Z,12.5
2017-04-05T17:27:36.509Z,12.4
2017-04-05T17:28:38.312Z,12.3
2017-04-05T17:29:40.111Z,12.3
2017-04-05T17:30:41.907Z,12.2
2017-04-05T17:31:43.701Z,12.1
2017-04-05T17:32:45.495Z,12.1
2017-04-05T17:33:47.309Z,12
2017-04-05T17:34:49.096Z,12
2017-04-05T17:35:51.228Z,11.9
2017-04-05T17:36:53.039Z,11.9
2017-04-05T17:37:54.835Z,11.9
2017-04-05T17:38:56.646Z,11.8
2017-04-05T17:39:58.770Z,11.8
2017-04-05T17:41:00.576Z,11.7
2017-04-05T17:42:02.365Z,11.7
2017-04-05T17:43:04.531Z,11.6
2017-04-05T17:44:06.326Z,11.6
2017-04-05T17:45:08.121Z,11.6
2017-04-05T17:46:09.922Z,11.5
2017-04-05T17:47:11.724Z,11.5
2017-04-05T17:48:13.517Z,11.4
2017-04-05T17:49:15.322Z,11.4
2017-04-05T17:50:17.100Z,11.3
2017-04-05T17:51:19.246Z,11.3
2017-04-05T17:52:21.385Z,11.3
2017-04-05T17:53:23.182Z,11.2
2017-04-05T17:54:24.975Z,11.2
2017-04-05T17:55:26.778Z,11.1
2017-04-05T17:56:28.571Z,11.1
2017-04-05T17:57:30.379Z,11.1
2017-04-05T17:58:32.174Z,11
2017-04-05T17:59:33.984Z,11
2017-04-05T18:00:35.776Z,11
2017-04-05T18:01:37.578Z,11
2017-04-05T18:02:39.381Z,11
2017-04-05T18:03:41.172Z,10.9
2017-04-05T18:04:42.974Z,10.9
2017-04-05T18:05:44.774Z,10.9
2017-04-05T18:06:46.581Z,10.9
2017-04-05T18:07:48.390Z,10.8
2017-04-05T18:08:50.207Z,10.8
2017-04-05T18:09:52.336Z,10.9
2017-04-05T18:10:54.818Z,10.8
2017-04-05T18:11:56.619Z,10.8
2017-04-05T18:12:58.760Z,10.8
2017-04-05T18:14:00.557Z,10.7
2017-04-05T18:15:02.365Z,10.7
2017-04-05T18:16:04.148Z,10.7
2017-04-05T18:17:05.947Z,10.7
2017-04-05T18:18:08.077Z,10.7
2017-04-05T18:19:09.870Z,10.6
2017-04-05T18:20:11.663Z,10.6
2017-04-05T18:21:13.799Z,10.6
2017-04-05T18:22:15.604Z,10.5
2017-04-05T18:23:17.410Z,10.5
2017-04-05T18:24:19.213Z,10.5
2017-04-05T18:25:21.011Z,10.5
2017-04-05T18:26:22.802Z,10.4
2017-04-05T18:27:24.608Z,10.5
2017-04-05T18:28:26.399Z,10.4
2017-04-05T18:29:28.210Z,10.4
2017-04-05T18:30:30.001Z,10.4
2017-04-05T18:31:31.800Z,10.4
2017-04-05T18:32:33.958Z,10.4
2017-04-05T18:33:35.766Z,10.3
2017-04-05T18:34:37.563Z,10.3
2017-04-05T18:35:39.696Z,10.3
2017-04-05T18:36:41.485Z,10.3
2017-04-05T18:37:43.620Z,10.3
2017-04-05T18:38:45.417Z,10.2
2017-04-05T18:39:47.209Z,10.2
2017-04-05T18:40:49.017Z,10.2
2017-04-05T18:41:50.819Z,10.2
2017-04-05T18:42:52.955Z,10.2
2017-04-05T18:43:54.767Z,10.2
2017-04-05T18:44:56.543Z,10.2
2017-04-05T18:45:58.336Z,10.1
2017-04-05T18:47:00.128Z,10.1
2017-04-05T18:48:01.928Z,10.1
2017-04-05T18:49:03.707Z,10.1
2017-04-05T18:50:05.506Z,10.1
2017-04-05T18:51:07.632Z,10
2017-04-05T18:52:09.425Z,10
2017-04-05T18:53:11.209Z,10
2017-04-05T18:54:13.000Z,10
2017-04-05T18:55:14.797Z,10
2017-04-05T18:56:16.600Z,10
2017-04-05T18:57:18.396Z,10
2017-04-05T18:58:20.178Z,10
2017-04-05T18:59:21.975Z,10.1
2017-04-05T19:00:23.772Z,10
2017-04-05T19:01:25.904Z,10.1
2017-04-05T19:02:27.701Z,10.1
2017-04-05T19:03:29.515Z,10.1
2017-04-05T19:04:31.307Z,10.1
2017-04-05T19:05:33.108Z,10.1
2017-04-05T19:06:34.899Z,10.1
2017-04-05T19:07:36.691Z,10.1
2017-04-05T19:08:38.487Z,10.1
2017-04-05T19:09:40.284Z,10.1
2017-04-05T19:10:42.412Z,10.1
2017-04-05T19:11:44.207Z,10.1
2017-04-05T19:12:45.995Z,10.1
2017-04-05T19:13:47.791Z,10.1
2017-04-05T19:14:49.593Z,10.1
2017-04-05T19:15:51.387Z,10.1
2017-04-05T19:16:53.516Z,10.1
2017-04-05T19:17:55.314Z,10.2
2017-04-05T19:18:57.112Z,10.1
2017-04-05T19:19:58.902Z,10.2
2017-04-05T19:21:00.702Z,10.2
2017-04-05T19:22:02.498Z,10.2
2017-04-05T19:23:04.288Z,10.2
2017-04-05T19:24:06.087Z,10.2
2017-04-05T19:25:08.218Z,10.2
2017-04-05T19:26:09.997Z,10.2
2017-04-05T19:27:11.791Z,10.2
2017-04-05T19:28:13.580Z,10.2
2017-04-05T19:29:15.372Z,10.2
2017-04-05T19:30:17.161Z,10.2
2017-04-05T19:31:18.968Z,10.3
2017-04-05T19:32:21.105Z,10.3
2017-04-05T19:33:22.901Z,10.3
2017-04-05T19:34:24.682Z,10.3
2017-04-05T19:35:26.824Z,10.3
2017-04-05T19:36:28.626Z,10.3
2017-04-05T19:37:30.420Z,10.3
2017-04-05T19:38:32.207Z,10.3
2017-04-05T19:39:34.007Z,10.3
2017-04-05T19:40:36.140Z,10.3
2017-04-05T19:41:37.926Z,10.2
2017-04-05T19:42:39.733Z,10.3
2017-04-05T19:43:41.552Z,10.2
2017-04-05T19:44:43.339Z,10.2
2017-04-05T19:45:45.142Z,10.2
2017-04-05T19:46:46.935Z,10.2
2017-04-05T19:47:48.728Z,10.2
2017-04-05T19:48:50.525Z,10.2
2017-04-05T19:49:52.320Z,10.2
2017-04-05T19:50:54.453Z,10.2
2017-04-05T19:51:56.586Z,10.2
2017-04-05T19:52:58.375Z,10.2
2017-04-05T19:54:00.159Z,10.2
2017-04-05T19:55:01.945Z,10.2
2017-04-05T19:56:03.748Z,10.2
2017-04-05T19:57:05.555Z,10.2
2017-04-05T19:58:07.380Z,10.2
2017-04-05T19:59:09.167Z,10.2
2017-04-05T20:00:10.959Z,10.2
2017-04-05T20:01:12.748Z,10.2
2017-04-05T20:02:14.543Z,10.2
2017-04-05T20:03:16.328Z,10.2
2017-04-05T20:04:18.118Z,10.2
2017-04-05T20:05:19.912Z,10.2
2017-04-05T20:06:21.711Z,10.2
2017-04-05T20:07:23.490Z,10.1
2017-04-05T20:08:25.621Z,10.1
2017-04-05T20:09:27.409Z,10.1
2017-04-05T20:10:29.226Z,10.2
2017-04-05T20:11:31.031Z,10.2
2017-04-05T20:12:32.826Z,10.1
2017-04-05T20:13:34.963Z,10.2
2017-04-05T20:14:37.140Z,10.2
2017-04-05T20:15:38.939Z,10.2
2017-04-05T20:16:40.730Z,10.2
2017-04-05T20:17:42.528Z,10.2
2017-04-05T20:18:44.322Z,10.2
2017-04-05T20:19:46.118Z,10.2
2017-04-05T20:20:47.898Z,10.2
2017-04-05T20:21:49.697Z,10.2
2017-04-05T20:22:51.501Z,10.1
2017-04-05T20:23:53.299Z,10.1
2017-04-05T20:24:55.078Z,10.1
2017-04-05T20:25:57.217Z,10.1
2017-04-05T20:26:59.014Z,10.1
2017-04-05T20:28:00.812Z,10.1
2017-04-05T20:29:02.596Z,10.1
2017-04-05T20:30:04.388Z,10.1
2017-04-05T20:31:06.176Z,10.1
2017-04-05T20:32:07.976Z,10.1
2017-04-05T20:33:09.766Z,10.1
2017-04-05T20:34:11.893Z,10.1
2017-04-05T20:35:13.683Z,10.1
2017-04-05T20:36:15.479Z,10.1
2017-04-05T20:37:17.275Z,10.1
2017-04-05T20:38:19.402Z,10.1
2017-04-05T20:39:21.189Z,10.1
2017-04-05T20:40:22.987Z,10.1
2017-04-05T20:41:24.781Z,10.1
2017-04-05T20:42:26.573Z,10.1
2017-04-05T20:43:28.358Z,10.1
2017-04-05T20:44:30.498Z,10.1
2017-04-05T20:45:32.303Z,10.1
2017-04-05T20:46:34.091Z,10
2017-04-05T20:47:35.892Z,10
2017-04-05T20:48:37.669Z,10
2017-04-05T20:49:39.473Z,10
2017-04-05T20:50:41.264Z,10
2017-04-05T20:51:43.058Z,9.9
2017-04-05T20:52:45.177Z,9.9
2017-04-05T20:53:46.978Z,9.9
2017-04-05T20:54:49.121Z,9.9
2017-04-05T20:55:51.254Z,9.9
2017-04-05T20:56:53.041Z,9.9
2017-04-05T20:57:54.834Z,9.8
2017-04-05T20:58:56.628Z,9.8
2017-04-05T20:59:58.432Z,9.8
2017-04-05T21:01:00.228Z,9.8
2017-04-05T21:02:02.025Z,9.8
2017-04-05T21:03:03.815Z,9.7
2017-04-05T21:04:06.286Z,9.7
2017-04-05T21:05:08.068Z,9.7
2017-04-05T21:06:09.858Z,9.7
2017-04-05T21:07:11.647Z,9.7
2017-04-05T21:08:13.448Z,9.7
2017-04-05T21:09:15.235Z,9.7
2017-04-05T21:10:17.021Z,9.6
2017-04-05T21:11:18.810Z,9.6
2017-04-05T21:12:20.605Z,9.6
2017-04-05T21:13:22.728Z,9.6
2017-04-05T21:14:24.523Z,9.6
2017-04-05T21:15:26.308Z,9.6
2017-04-05T21:16:28.116Z,9.6
2017-04-05T21:17:29.907Z,9.7
2017-04-05T21:18:31.704Z,9.7
2017-04-05T21:19:33.487Z,9.7
2017-04-05T21:20:35.275Z,9.7
2017-04-05T21:21:37.078Z,9.7
2017-04-05T21:22:38.869Z,9.7
2017-04-05T21:23:40.656Z,9.7
2017-04-05T21:24:42.454Z,9.7
2017-04-05T21:25:44.277Z,9.7
2017-04-05T21:26:46.067Z,9.7
2017-04-05T21:27:47.863Z,9.7
2017-04-05T21:28:49.665Z,9.7
2017-04-05T21:29:51.446Z,9.7
2017-04-05T21:30:53.244Z,9.7
2017-04-05T21:31:55.245Z,9.7
2017-04-05T21:32:58.698Z,9.8
2017-04-05T21:34:02.013Z,9.8
2017-04-05T21:35:04.771Z,9.8
2017-04-05T21:36:06.832Z,9.7
2017-04-05T21:37:08.809Z,9.7
2017-04-05T21:38:10.924Z,9.7
2017-04-05T21:39:13.148Z,9.7
2017-04-05T21:40:15.244Z,9.7
2017-04-05T21:41:17.238Z,9.7
2017-04-05T21:42:19.093Z,9.7
2017-04-05T21:43:21.525Z,9.7
2017-04-05T21:44:27.216Z,9.7
2017-04-05T21:45:29.504Z,9.7
2017-04-05T21:46:32.049Z,9.7
2017-04-05T21:47:35.306Z,9.7
2017-04-05T21:48:37.620Z,9.7
2017-04-05T21:49:40.397Z,9.7
2017-04-05T21:50:43.393Z,9.7
2017-04-05T21:51:46.097Z,9.8
2017-04-05T21:52:48.262Z,9.8
2017-04-05T21:53:50.576Z,9.8
2017-04-05T21:54:53.431Z,9.8
2017-04-05T21:55:55.631Z,9.8
2017-04-05T21:56:57.890Z,9.8
2017-04-05T21:58:00.190Z,9.8
2017-04-05T21:59:05.724Z,9.8
2017-04-05T22:00:08.418Z,9.8
2017-04-05T22:01:12.999Z,9.8
2017-04-05T22:02:15.783Z,9.8
2017-04-05T22:03:20.424Z,9.8
2017-04-05T22:04:25.112Z,9.8
2017-04-05T22:05:27.653Z,9.8
2017-04-05T22:06:30.342Z,9.8
2017-04-05T22:07:34.170Z,9.8
2017-04-05T22:08:36.900Z,9.8
2017-04-05T22:09:39.245Z,9.8
2017-04-05T22:10:42.024Z,9.8
2017-04-05T22:11:44.323Z,9.8
2017-04-05T22:12:46.777Z,9.8
2017-04-05T22:13:51.091Z,9.8
2017-04-05T22:14:53.840Z,9.8
2017-04-05T22:15:56.159Z,9.8
2017-04-05T22:16:58.343Z,9.8
2017-04-05T22:18:00.736Z,9.8
2017-04-05T22:19:02.794Z,9.8
2017-04-05T22:20:04.934Z,9.8
2017-04-05T22:21:07.224Z,9.8
2017-04-05T22:22:11.558Z,9.8
2017-04-05T22:23:13.493Z,9.8
2017-04-05T22:24:15.415Z,9.8
2017-04-05T22:25:17.208Z,9.8
2017-04-05T22:26:19.789Z,9.8
2017-04-05T22:27:21.585Z,9.8
2017-04-05T22:28:23.787Z,9.8
2017-04-05T22:29:26.016Z,9.7
2017-04-05T22:30:27.807Z,9.8
2017-04-05T22:31:29.609Z,9.8
2017-04-05T22:32:31.474Z,9.8
2017-04-05T22:33:33.602Z,9.8
2017-04-05T22:34:35.798Z,9.8
2017-04-05T22:35:37.594Z,9.8
2017-04-05T22:36:39.377Z,9.8
2017-04-05T22:37:41.177Z,9.8
2017-04-05T22:38:42.963Z,9.8
2017-04-05T22:39:44.746Z,9.8
2017-04-05T22:40:46.552Z,9.8
2017-04-05T22:41:48.349Z,9.8
2017-04-05T22:42:50.181Z,9.8
2017-04-05T22:43:51.978Z,9.8
2017-04-05T22:44:54.218Z,9.8
2017-04-05T22:45:56.008Z,9.8
2017-04-05T22:46:57.803Z,9.8
2017-04-05T22:47:59.686Z,9.8
2017-04-05T22:49:01.489Z,9.8
2017-04-05T22:50:03.969Z,9.8